Terminal Aerodrome Forecast
Issued by NWS Wichita, KS

Home | Current Version | Previous Version | Text Only | Print | Product List | Glossary On
Versions: 1 2 3 4 5 6 7 8 9 10 11 12 13 14 15 16 17 18 19
000
FTUS43 KICT 210600 AAA
TAFICT
TAF AMD
KICT 210607Z 2106/2206 02006KT P6SM VCSH BKN080
     FM211400 02012KT P6SM SCT250
     FM220000 01007KT P6SM SKC=

USA.gov is the U.S. government's official web portal to all federal, state and local government web resources and services.